createdAt,value
2019-02-07T00:00:43.693Z,85.55
2019-02-07T00:03:11.228Z,85.51
2019-02-07T00:05:38.705Z,85.46
2019-02-07T00:08:06.172Z,84.97
2019-02-07T00:10:33.612Z,85.39
2019-02-07T00:13:01.069Z,85.39
2019-02-07T00:15:28.498Z,85.24
2019-02-07T00:17:56.048Z,85.41
2019-02-07T00:20:23.520Z,85.41
2019-02-07T00:22:50.917Z,84.81
2019-02-07T00:25:18.331Z,84.62
2019-02-07T00:27:45.935Z,85.22
2019-02-07T00:30:14.811Z,85.22
2019-02-07T00:32:42.256Z,85.54
2019-02-07T00:35:10.009Z,85.16
2019-02-07T00:37:37.469Z,85.21
2019-02-07T00:40:08.133Z,84.98
2019-02-07T00:42:35.559Z,84.98
2019-02-07T00:45:03.975Z,84.62
2019-02-07T00:47:31.406Z,84.62
2019-02-07T00:49:58.911Z,84.55
2019-02-07T00:52:26.305Z,84.55
2019-02-07T00:54:53.745Z,84.00
2019-02-07T00:57:21.124Z,83.90
2019-02-07T00:59:48.548Z,84.63
2019-02-07T01:02:16.047Z,84.17
2019-02-07T01:04:43.565Z,84.23
2019-02-07T01:07:10.989Z,84.23
2019-02-07T01:09:38.349Z,84.17
2019-02-07T01:12:05.945Z,84.09
2019-02-07T01:14:33.352Z,84.02
2019-02-07T01:17:00.745Z,84.04
2019-02-07T01:19:28.452Z,84.54
2019-02-07T01:21:55.845Z,84.54
2019-02-07T01:24:23.267Z,84.05
2019-02-07T01:26:50.665Z,84.64
2019-02-07T01:29:18.387Z,84.36
2019-02-07T01:31:45.825Z,84.85
2019-02-07T01:34:13.276Z,84.42
2019-02-07T01:36:42.548Z,84.42
2019-02-07T01:39:10.107Z,84.79
2019-02-07T01:41:37.469Z,84.79
2019-02-07T01:44:05.050Z,84.60
2019-02-07T01:46:32.505Z,84.60
2019-02-07T01:48:59.925Z,83.96
2019-02-07T01:51:27.332Z,83.96
2019-02-07T01:53:54.941Z,83.81
2019-02-07T01:56:22.328Z,83.81
2019-02-07T01:58:49.751Z,84.05
2019-02-07T02:01:17.129Z,84.32
2019-02-07T02:03:44.526Z,83.65
2019-02-07T02:06:11.989Z,84.00
2019-02-07T02:08:39.393Z,83.75
2019-02-07T02:11:06.770Z,84.08
2019-02-07T02:13:34.225Z,84.08
2019-02-07T02:16:01.651Z,84.04
2019-02-07T02:18:29.050Z,84.09
2019-02-07T02:20:56.556Z,83.88
2019-02-07T02:23:23.999Z,83.99
2019-02-07T02:25:51.443Z,83.99
2019-02-07T02:28:18.833Z,83.62
2019-02-07T02:30:46.393Z,83.24
2019-02-07T02:33:13.787Z,83.22
2019-02-07T02:35:41.191Z,83.21
2019-02-07T02:38:08.701Z,84.26
2019-02-07T02:40:36.144Z,84.26
2019-02-07T02:43:03.690Z,84.62
2019-02-07T02:45:37.644Z,84.78
2019-02-07T02:48:00.653Z,83.44
2019-02-07T02:50:28.070Z,83.02
2019-02-07T02:52:55.457Z,82.98
2019-02-07T02:55:32.026Z,82.98
2019-02-07T02:57:59.503Z,83.57
2019-02-07T03:00:39.592Z,83.58
2019-02-07T03:03:35.528Z,83.50
2019-02-07T03:06:21.367Z,83.43
2019-02-07T03:09:14.572Z,83.20
2019-02-07T03:12:04.402Z,82.95
2019-02-07T03:14:44.202Z,83.45
2019-02-07T03:17:49.307Z,83.45
2019-02-07T03:20:45.166Z,82.48
2019-02-07T03:23:40.862Z,83.05
2019-02-07T03:26:30.853Z,82.74
2019-02-07T03:29:32.923Z,82.74
2019-02-07T03:32:31.863Z,82.96
2019-02-07T03:35:22.797Z,81.32
2019-02-07T03:38:15.566Z,82.00
2019-02-07T03:41:02.525Z,82.06
2019-02-07T03:43:58.084Z,82.06
2019-02-07T03:46:43.712Z,82.19
2019-02-07T03:49:26.126Z,82.25
2019-02-07T03:52:28.235Z,82.25
2019-02-07T03:55:17.443Z,82.64
2019-02-07T03:57:59.265Z,82.56
2019-02-07T04:00:49.237Z,82.59
2019-02-07T04:03:24.634Z,82.13
2019-02-07T04:06:17.540Z,82.13
2019-02-07T04:09:13.377Z,82.63
2019-02-07T04:11:58.949Z,82.54
2019-02-07T04:14:44.661Z,82.54
2019-02-07T04:17:40.604Z,82.71
2019-02-07T04:20:30.491Z,82.57
2019-02-07T04:23:35.517Z,82.90
2019-02-07T04:26:20.812Z,82.90
2019-02-07T04:28:53.810Z,82.93
2019-02-07T04:31:49.817Z,82.88
2019-02-07T04:34:39.337Z,82.64
2019-02-07T04:37:32.245Z,82.77
2019-02-07T04:40:19.174Z,83.64
2019-02-07T04:43:21.420Z,83.64
2019-02-07T04:46:04.473Z,82.65
2019-02-07T04:48:57.271Z,82.65
2019-02-07T04:51:42.958Z,81.79
2019-02-07T04:54:25.652Z,81.79
2019-02-07T04:57:03.897Z,82.39
2019-02-07T04:59:49.591Z,82.39
2019-02-07T05:02:34.924Z,82.71
2019-02-07T05:05:22.335Z,82.32
2019-02-07T05:08:15.256Z,82.44
2019-02-07T05:10:58.069Z,82.44
2019-02-07T05:13:47.840Z,82.43
2019-02-07T05:16:39.579Z,81.78
2019-02-07T05:19:37.444Z,82.42
2019-02-07T05:22:27.269Z,82.42
2019-02-07T05:25:12.537Z,82.42
2019-02-07T05:27:59.462Z,81.60
2019-02-07T05:30:58.600Z,81.69
2019-02-07T05:34:00.946Z,81.55
2019-02-07T05:36:48.118Z,81.55
2019-02-07T05:39:33.753Z,81.64
2019-02-07T05:42:19.358Z,81.17
2019-02-07T05:45:12.917Z,81.73
2019-02-07T05:48:00.280Z,81.94
2019-02-07T05:50:53.415Z,81.14
2019-02-07T05:53:40.138Z,81.19
2019-02-07T05:56:25.632Z,81.19
2019-02-07T05:59:11.406Z,81.27
2019-02-07T06:01:48.813Z,81.35
2019-02-07T06:04:26.425Z,80.87
2019-02-07T06:07:16.348Z,80.87
2019-02-07T06:10:02.198Z,80.95
2019-02-07T06:12:58.019Z,80.95
2019-02-07T06:15:38.233Z,81.17
2019-02-07T06:18:31.137Z,80.96
2019-02-07T06:21:15.256Z,81.01
2019-02-07T06:23:50.109Z,81.53
2019-02-07T06:26:29.800Z,81.53
2019-02-07T06:29:16.784Z,81.79
2019-02-07T06:32:21.948Z,81.79
2019-02-07T06:35:20.813Z,81.76
2019-02-07T06:38:16.517Z,81.76
2019-02-07T06:41:05.272Z,81.92
2019-02-07T06:43:51.072Z,81.54
2019-02-07T06:46:46.900Z,80.83
2019-02-07T06:49:36.368Z,80.83
2019-02-07T06:52:38.372Z,81.05
2019-02-07T06:55:25.108Z,81.29
2019-02-07T06:58:11.426Z,81.26
2019-02-07T07:01:04.463Z,80.67
2019-02-07T07:04:09.317Z,80.71
2019-02-07T07:06:56.261Z,80.71
2019-02-07T07:09:43.245Z,80.35
2019-02-07T07:12:30.186Z,80.20
2019-02-07T07:15:19.937Z,80.20
2019-02-07T07:18:22.019Z,80.21
2019-02-07T07:21:18.105Z,80.06
2019-02-07T07:24:03.529Z,79.86
2019-02-07T07:27:02.610Z,79.86
2019-02-07T07:29:48.199Z,79.36
2019-02-07T07:32:35.172Z,80.16
2019-02-07T07:35:27.717Z,80.16
2019-02-07T07:38:06.541Z,80.01
2019-02-07T07:40:52.123Z,80.26
2019-02-07T07:43:50.748Z,79.69
2019-02-07T07:46:41.959Z,79.69
2019-02-07T07:49:47.401Z,79.51
2019-02-07T07:52:40.488Z,79.09
2019-02-07T07:55:26.221Z,79.09
2019-02-07T07:58:11.538Z,78.72
2019-02-07T08:00:58.424Z,79.01
2019-02-07T08:03:54.625Z,78.94
2019-02-07T08:06:41.540Z,78.30
2019-02-07T08:09:45.389Z,77.99
2019-02-07T08:12:32.317Z,77.69
2019-02-07T08:15:18.585Z,77.69
2019-02-07T08:18:11.373Z,76.86
2019-02-07T08:20:57.235Z,77.14
2019-02-07T08:23:53.116Z,76.85
2019-02-07T08:26:58.607Z,77.51
2019-02-07T08:29:54.301Z,77.39
2019-02-07T08:32:56.385Z,76.72
2019-02-07T08:35:46.663Z,76.72
2019-02-07T08:38:45.365Z,76.92
2019-02-07T08:41:41.799Z,76.92
2019-02-07T08:44:44.117Z,76.31
2019-02-07T08:47:33.720Z,76.11
2019-02-07T08:50:38.928Z,76.18
2019-02-07T08:53:25.813Z,76.18
2019-02-07T08:56:07.410Z,75.98
2019-02-07T08:58:56.461Z,75.78
2019-02-07T09:01:51.520Z,76.81
2019-02-07T09:04:44.267Z,76.78
2019-02-07T09:07:36.190Z,76.42
2019-02-07T09:10:22.081Z,75.98
2019-02-07T09:13:03.554Z,76.59
2019-02-07T09:15:49.000Z,76.32
2019-02-07T09:18:34.706Z,75.87
2019-02-07T09:21:30.596Z,75.76
2019-02-07T09:24:16.237Z,75.82
2019-02-07T09:27:03.144Z,75.51
2019-02-07T09:29:48.649Z,75.35
2019-02-07T09:32:35.596Z,74.66
2019-02-07T09:35:22.989Z,74.23
2019-02-07T09:38:08.509Z,73.84
2019-02-07T09:40:54.123Z,74.18
2019-02-07T09:43:45.532Z,74.86
2019-02-07T09:46:32.550Z,74.58
2019-02-07T09:49:19.491Z,74.12
2019-02-07T09:52:05.247Z,74.07
2019-02-07T09:54:52.185Z,73.56
2019-02-07T09:57:43.872Z,73.42
2019-02-07T10:00:44.325Z,73.20
2019-02-07T10:03:18.707Z,72.72
2019-02-07T10:06:08.208Z,73.20
2019-02-07T10:09:01.296Z,72.45
2019-02-07T10:11:51.063Z,71.89
2019-02-07T10:14:27.571Z,72.45
2019-02-07T10:17:13.015Z,71.77
2019-02-07T10:20:04.945Z,70.62
2019-02-07T10:22:50.756Z,70.62
2019-02-07T10:25:40.495Z,70.09
2019-02-07T10:28:27.492Z,69.71
2019-02-07T10:31:20.417Z,70.54
2019-02-07T10:34:07.378Z,70.50
2019-02-07T10:36:53.006Z,69.54
2019-02-07T10:39:34.799Z,67.94
2019-02-07T10:42:20.027Z,66.56
2019-02-07T10:45:06.263Z,67.17
2019-02-07T10:47:49.254Z,66.83
2019-02-07T10:50:51.643Z,66.11
2019-02-07T10:53:35.083Z,65.86
2019-02-07T10:56:37.100Z,66.58
2019-02-07T10:59:26.910Z,65.79
2019-02-07T11:02:13.868Z,64.71
2019-02-07T11:05:06.750Z,65.39
2019-02-07T11:07:52.280Z,63.66
2019-02-07T11:10:37.805Z,63.15
2019-02-07T11:13:20.194Z,62.88
2019-02-07T11:16:09.711Z,62.14
2019-02-07T11:18:56.466Z,63.69
2019-02-07T11:21:43.393Z,63.91
2019-02-07T11:24:23.013Z,63.84
2019-02-07T11:27:08.858Z,63.46
2019-02-07T11:29:55.828Z,63.12
2019-02-07T11:32:36.492Z,63.36
2019-02-07T11:35:14.887Z,62.25
2019-02-07T11:38:00.721Z,62.98
2019-02-07T11:40:41.432Z,62.53
2019-02-07T11:43:40.877Z,62.92
2019-02-07T11:46:26.530Z,61.31
2019-02-07T11:49:12.178Z,61.14
2019-02-07T11:52:16.245Z,63.02
2019-02-07T11:54:58.707Z,63.94
2019-02-07T11:57:45.806Z,63.57
2019-02-07T12:00:36.700Z,63.12
2019-02-07T12:03:23.711Z,63.35
2019-02-07T12:06:05.192Z,63.81
2019-02-07T12:08:57.797Z,63.60
2019-02-07T12:11:54.044Z,63.32
2019-02-07T12:14:44.904Z,62.69
2019-02-07T12:17:31.821Z,66.15
2019-02-07T12:20:17.417Z,68.21
2019-02-07T12:23:07.133Z,68.14
2019-02-07T12:25:48.345Z,68.11
2019-02-07T12:28:31.730Z,67.37
2019-02-07T12:31:18.833Z,65.96
2019-02-07T12:34:04.075Z,67.97
2019-02-07T12:37:06.095Z,68.98
2019-02-07T12:39:51.722Z,67.85
2019-02-07T12:42:47.493Z,67.35
2019-02-07T12:45:46.817Z,66.94
2019-02-07T12:48:33.698Z,66.56
2019-02-07T12:51:19.365Z,64.95
2019-02-07T12:54:04.855Z,63.78
2019-02-07T12:56:41.689Z,64.52
2019-02-07T12:59:31.536Z,63.63
2019-02-07T13:02:17.632Z,62.43
2019-02-07T13:05:03.198Z,62.95
2019-02-07T13:07:48.675Z,62.43
2019-02-07T13:10:35.637Z,60.73
2019-02-07T13:13:35.222Z,60.98
2019-02-07T13:16:23.021Z,61.27
2019-02-07T13:19:22.075Z,63.40
2019-02-07T13:22:24.508Z,64.00
2019-02-07T13:25:09.687Z,63.39
2019-02-07T13:27:59.466Z,63.97
2019-02-07T13:30:46.959Z,63.98
2019-02-07T13:33:36.819Z,64.51
2019-02-07T13:36:23.479Z,62.65
2019-02-07T13:39:10.563Z,64.22
2019-02-07T13:42:03.357Z,64.02
2019-02-07T13:45:08.518Z,63.64
2019-02-07T13:48:13.657Z,64.16
2019-02-07T13:51:00.577Z,66.20
2019-02-07T13:53:47.706Z,66.58
2019-02-07T13:56:40.686Z,64.46
2019-02-07T13:59:33.634Z,62.55
2019-02-07T14:02:23.205Z,63.00
2019-02-07T14:05:04.910Z,63.12
2019-02-07T14:07:57.514Z,63.64
2019-02-07T14:10:41.613Z,64.43
2019-02-07T14:13:28.700Z,64.61
2019-02-07T14:16:18.914Z,64.58
2019-02-07T14:19:11.870Z,64.39
2019-02-07T14:21:54.505Z,64.41
2019-02-07T14:24:47.367Z,65.18
2019-02-07T14:27:49.428Z,68.12
2019-02-07T14:30:42.340Z,68.08
2019-02-07T14:33:28.028Z,67.48
2019-02-07T14:36:18.075Z,67.84
2019-02-07T14:39:04.744Z,68.45
2019-02-07T14:41:57.546Z,69.96
2019-02-07T14:44:45.508Z,70.86
2019-02-07T14:47:12.953Z,71.00
2019-02-07T14:49:40.362Z,71.55
2019-02-07T14:52:08.180Z,71.72
2019-02-07T14:54:35.664Z,71.30
2019-02-07T14:57:03.331Z,70.95
2019-02-07T14:59:30.774Z,70.20
2019-02-07T15:01:58.163Z,70.51
2019-02-07T15:04:25.717Z,69.90
2019-02-07T15:06:53.278Z,70.30
2019-02-07T15:09:21.228Z,69.87
2019-02-07T15:11:48.749Z,70.32
2019-02-07T15:14:16.255Z,70.10
2019-02-07T15:16:43.965Z,68.49
2019-02-07T15:19:11.487Z,67.84
2019-02-07T15:21:39.019Z,68.47
2019-02-07T15:24:08.403Z,68.61
2019-02-07T15:26:35.997Z,69.13
2019-02-07T15:29:03.632Z,69.30
2019-02-07T15:31:31.052Z,71.11
2019-02-07T15:33:58.474Z,71.08
2019-02-07T15:36:25.923Z,68.80
2019-02-07T15:38:54.269Z,69.46
2019-02-07T15:41:21.813Z,68.54
2019-02-07T15:43:49.317Z,69.64
2019-02-07T15:46:16.752Z,72.22
2019-02-07T15:48:44.157Z,73.66
2019-02-07T15:51:11.676Z,73.41
2019-02-07T15:53:39.069Z,72.39
2019-02-07T15:56:06.467Z,72.14
2019-02-07T15:58:53.395Z,71.89
2019-02-07T16:01:30.913Z,73.37
2019-02-07T16:04:09.087Z,74.28
2019-02-07T16:06:37.737Z,75.10
2019-02-07T16:09:07.192Z,74.52
2019-02-07T16:11:34.655Z,73.45
2019-02-07T16:14:02.064Z,72.98
2019-02-07T16:16:29.540Z,73.33
2019-02-07T16:18:56.944Z,75.01
2019-02-07T16:21:24.550Z,74.25
2019-02-07T16:23:52.131Z,75.75
2019-02-07T16:26:19.508Z,75.95
2019-02-07T16:28:46.971Z,76.46
2019-02-07T16:31:14.413Z,76.00
2019-02-07T16:33:41.827Z,75.79
2019-02-07T16:36:09.323Z,76.47
2019-02-07T16:38:36.878Z,77.84
2019-02-07T16:41:04.639Z,77.90
2019-02-07T16:43:32.410Z,77.43
2019-02-07T16:46:00.067Z,77.48
2019-02-07T16:48:27.489Z,77.69
2019-02-07T16:51:00.405Z,76.97
2019-02-07T16:53:24.284Z,75.91
2019-02-07T16:55:51.667Z,77.30
2019-02-07T16:58:19.336Z,76.34
2019-02-07T17:00:46.874Z,77.16
2019-02-07T17:03:14.281Z,78.20
2019-02-07T17:05:41.843Z,78.93
2019-02-07T17:08:09.373Z,79.35
2019-02-07T17:10:37.001Z,80.22
2019-02-07T17:13:06.557Z,78.23
2019-02-07T17:15:34.239Z,78.29
2019-02-07T17:18:01.697Z,78.57
2019-02-07T17:20:29.636Z,79.29
2019-02-07T17:22:57.546Z,79.15
2019-02-07T17:25:25.103Z,77.61
2019-02-07T17:27:52.511Z,77.77
2019-02-07T17:30:20.518Z,77.98
2019-02-07T17:32:48.059Z,78.09
2019-02-07T17:35:16.011Z,77.76
2019-02-07T17:37:43.471Z,74.55
2019-02-07T17:40:14.178Z,77.82
2019-02-07T17:42:41.562Z,78.87
2019-02-07T17:45:11.925Z,77.89
2019-02-07T17:47:39.429Z,77.45
2019-02-07T17:50:13.618Z,79.04
2019-02-07T17:52:41.031Z,79.36
2019-02-07T17:55:11.412Z,79.21
2019-02-07T17:57:38.845Z,79.98
2019-02-07T18:00:19.569Z,79.99
2019-02-07T18:02:47.176Z,80.25
2019-02-07T18:05:14.621Z,78.83
2019-02-07T18:07:42.139Z,78.71
2019-02-07T18:10:09.828Z,78.33
2019-02-07T18:12:37.365Z,79.19
2019-02-07T18:15:05.810Z,79.63
2019-02-07T18:17:33.248Z,79.44
2019-02-07T18:20:00.764Z,80.49
2019-02-07T18:22:28.173Z,81.02
2019-02-07T18:24:55.703Z,81.42
2019-02-07T18:27:23.123Z,79.25
2019-02-07T18:29:50.561Z,77.87
2019-02-07T18:32:18.028Z,79.90
2019-02-07T18:34:45.512Z,80.30
2019-02-07T18:37:14.745Z,80.36
2019-02-07T18:39:42.203Z,80.85
2019-02-07T18:42:09.575Z,81.12
2019-02-07T18:44:36.959Z,80.83
2019-02-07T18:47:04.572Z,80.23
2019-02-07T18:49:32.049Z,80.16
2019-02-07T18:51:59.548Z,80.05
2019-02-07T18:54:27.045Z,78.56
2019-02-07T18:56:54.573Z,79.23
2019-02-07T18:59:22.023Z,79.31
2019-02-07T19:01:49.423Z,78.35
2019-02-07T19:04:16.870Z,79.14
2019-02-07T19:06:44.388Z,78.56
2019-02-07T19:09:11.792Z,78.99
2019-02-07T19:11:39.311Z,79.98
2019-02-07T19:14:06.898Z,80.50
2019-02-07T19:16:34.287Z,81.12
2019-02-07T19:19:01.752Z,81.35
2019-02-07T19:21:29.179Z,81.66
2019-02-07T19:23:56.601Z,81.41
2019-02-07T19:26:24.232Z,81.35
2019-02-07T19:28:51.659Z,81.06
2019-02-07T19:31:19.166Z,81.63
2019-02-07T19:33:46.603Z,81.94
2019-02-07T19:36:14.140Z,82.29
2019-02-07T19:38:41.787Z,82.12
2019-02-07T19:41:09.535Z,81.54
2019-02-07T19:43:37.069Z,81.64
2019-02-07T19:46:04.628Z,81.46
2019-02-07T19:48:32.181Z,80.70
2019-02-07T19:50:59.939Z,80.04
2019-02-07T19:53:27.532Z,79.81
2019-02-07T19:55:55.084Z,79.34
2019-02-07T19:58:22.501Z,79.74
2019-02-07T20:00:50.568Z,80.17
2019-02-07T20:03:18.666Z,80.50
2019-02-07T20:05:46.243Z,80.97
2019-02-07T20:08:13.849Z,80.72
2019-02-07T20:10:41.480Z,81.02
2019-02-07T20:13:09.089Z,81.49
2019-02-07T20:15:38.831Z,82.03
2019-02-07T20:18:08.261Z,82.23
2019-02-07T20:20:35.902Z,80.26
2019-02-07T20:23:03.570Z,79.44
2019-02-07T20:25:31.362Z,79.10
2019-02-07T20:27:59.149Z,79.60
2019-02-07T20:30:31.828Z,79.86
2019-02-07T20:32:59.750Z,80.16
2019-02-07T20:35:27.340Z,81.22
2019-02-07T20:37:54.779Z,81.35
2019-02-07T20:40:23.579Z,80.74
2019-02-07T20:42:51.229Z,80.97
2019-02-07T20:45:19.022Z,80.98
2019-02-07T20:47:46.831Z,81.45
2019-02-07T20:50:17.263Z,81.94
2019-02-07T20:52:44.960Z,82.44
2019-02-07T20:55:12.899Z,82.67
2019-02-07T20:57:40.287Z,82.75
2019-02-07T21:00:18.114Z,82.90
2019-02-07T21:02:45.747Z,82.21
2019-02-07T21:05:13.331Z,81.32
2019-02-07T21:07:40.789Z,81.71
2019-02-07T21:10:10.207Z,82.63
2019-02-07T21:12:37.713Z,82.89
2019-02-07T21:15:08.199Z,83.44
2019-02-07T21:17:36.043Z,81.54
2019-02-07T21:20:06.247Z,81.35
2019-02-07T21:22:34.716Z,81.78
2019-02-07T21:25:02.424Z,81.19
2019-02-07T21:27:30.168Z,80.65
2019-02-07T21:29:57.807Z,81.63
2019-02-07T21:32:25.525Z,82.16
2019-02-07T21:34:53.142Z,82.28
2019-02-07T21:37:20.776Z,82.44
2019-02-07T21:39:48.363Z,82.37
2019-02-07T21:42:16.345Z,82.14
2019-02-07T21:44:44.201Z,81.80
2019-02-07T21:47:12.150Z,81.68
2019-02-07T21:49:39.940Z,82.01
2019-02-07T21:52:07.505Z,82.39
2019-02-07T21:54:35.013Z,82.07
2019-02-07T21:57:02.560Z,82.31
2019-02-07T21:59:30.007Z,81.76
2019-02-07T22:01:57.464Z,82.28
2019-02-07T22:04:24.925Z,82.63
2019-02-07T22:06:52.419Z,83.06
2019-02-07T22:09:19.816Z,83.16
2019-02-07T22:11:47.286Z,83.20
2019-02-07T22:14:14.767Z,82.51
2019-02-07T22:16:42.123Z,82.58
2019-02-07T22:19:09.560Z,83.09
2019-02-07T22:21:37.084Z,83.55
2019-02-07T22:24:05.003Z,84.00
2019-02-07T22:26:32.458Z,83.81
2019-02-07T22:28:59.846Z,83.90
2019-02-07T22:31:27.287Z,83.76
2019-02-07T22:33:54.786Z,83.30
2019-02-07T22:36:22.187Z,82.76
2019-02-07T22:38:49.569Z,82.79
2019-02-07T22:41:17.139Z,82.96
2019-02-07T22:43:44.528Z,82.80
2019-02-07T22:46:11.903Z,82.66
2019-02-07T22:48:39.276Z,82.45
2019-02-07T22:51:06.680Z,83.44
2019-02-07T22:53:34.109Z,83.39
2019-02-07T22:56:01.466Z,83.17
2019-02-07T22:58:28.836Z,83.50
2019-02-07T23:01:38.116Z,83.89
2019-02-07T23:04:07.430Z,84.24
2019-02-07T23:06:34.925Z,84.19
2019-02-07T23:09:04.054Z,83.14
2019-02-07T23:11:31.493Z,83.49
2019-02-07T23:13:58.868Z,84.39
2019-02-07T23:16:26.567Z,84.34
2019-02-07T23:18:54.991Z,84.47
2019-02-07T23:21:22.859Z,83.71
2019-02-07T23:23:50.222Z,84.11
2019-02-07T23:26:17.668Z,84.28
2019-02-07T23:28:45.087Z,84.80
2019-02-07T23:31:12.468Z,84.94
2019-02-07T23:33:40.110Z,85.02
2019-02-07T23:36:10.667Z,84.76
2019-02-07T23:38:38.241Z,85.85
2019-02-07T23:41:07.427Z,86.87
2019-02-07T23:43:34.965Z,87.62
2019-02-07T23:46:02.587Z,87.89
2019-02-07T23:48:29.950Z,88.03
2019-02-07T23:50:57.373Z,87.86
2019-02-07T23:53:24.800Z,88.67
2019-02-07T23:55:52.198Z,89.32
2019-02-07T23:58:19.590Z,89.71
